MDT,Max TemperatureF,Mean TemperatureF,Min TemperatureF,Max Dew PointF,MeanDew PointF,Min DewpointF,Max Humidity, Mean Humidity, Min Humidity, Max Sea Level PressureIn, Mean Sea Level PressureIn, Min Sea Level PressureIn, Max VisibilityMiles, Mean VisibilityMiles, Min VisibilityMiles, Max Wind SpeedMPH, Mean Wind SpeedMPH, Max Gust SpeedMPH,PrecipitationIn, CloudCover, Events, WindDirDegrees
2013-9-1,80,64,47,53,48,43,100,65,30,30.04,29.96,29.89,10,10,10,20,6,26,T,2,,164
2013-9-2,82,66,50,49,45,40,77,51,25,30.04,29.96,29.88,10,10,10,17,6,23,0.00,1,,222
2013-9-3,83,66,48,48,43,36,74,48,21,30.37,30.02,29.92,10,10,10,23,7,32,0.00,2,,182
2013-9-4,83,68,53,49,46,43,77,52,26,30.40,30.08,29.98,10,10,10,22,6,26,0.00,3,Thunderstorm,186
2013-9-5,85,68,50,52,46,41,83,53,23,30.42,30.11,29.96,10,10,10,20,5,24,T,3,Rain-Thunderstorm,288
2013-9-6,83,66,48,52,46,37,86,54,22,30.34,30.09,29.92,10,10,2,26,5,32,0.01,3,Rain-Thunderstorm,186
2013-9-7,82,63,44,53,44,38,86,55,23,30.28,30.01,29.90,10,10,9,20,5,29,0.01,2,Rain-Thunderstorm,206
2013-9-8,79,64,48,54,45,41,86,57,27,29.99,29.88,29.74,10,10,10,15,6,21,0.11,3,Rain,311
2013-9-9,62,56,49,55,51,48,100,86,72,30.22,29.96,29.81,10,10,2,17,3,24,0.18,6,Rain-Thunderstorm,145
2013-9-10,62,56,49,55,52,48,100,84,67,30.22,29.97,29.90,10,10,7,9,3,13,0.09,7,Rain,335
2013-9-11,68,59,49,54,52,50,100,84,67,30.26,30.00,29.91,10,10,10,18,3,24,0.11,6,Rain,316
2013-9-12,69,57,44,52,49,45,100,79,58,30.37,30.08,29.97,10,10,5,22,3,25,0.35,4,Rain-Thunderstorm,89
2013-9-13,68,59,50,52,48,42,100,71,42,30.31,29.95,29.76,10,9,5,16,5,22,0.54,6,Rain,170
2013-9-14,64,55,45,48,46,43,93,73,52,30.20,29.89,29.79,10,10,6,23,5,29,0.10,5,Rain,216
2013-9-15,65,54,43,52,45,42,93,73,52,30.29,30.01,29.92,10,10,9,14,5,21,0.11,5,Rain-Thunderstorm,172
2013-9-16,67,54,40,48,44,40,100,72,44,30.34,30.06,29.97,10,10,10,23,5,31,T,3,Rain-Thunderstorm,204
2013-9-17,72,56,40,47,41,36,89,59,28,30.06,29.92,29.78,10,10,10,23,5,32,T,2,,200
2013-9-18,68,57,45,50,44,39,93,65,37,30.15,29.88,29.71,10,10,10,31,8,46,0.15,6,Rain-Thunderstorm,166
2013-9-19,62,50,38,46,40,31,100,66,32,30.16,30.01,29.87,10,10,10,16,5,22,T,4,Rain-Thunderstorm,222
2013-9-20,70,51,32,32,27,15,85,49,12,30.16,30.03,29.92,10,10,10,14,6,17,0.00,0,,232
2013-9-21,70,54,37,38,34,29,79,51,22,30.03,29.89,29.75,10,10,10,18,5,29,0.00,2,,190
2013-9-22,63,51,38,48,41,37,92,69,46,30.03,29.75,29.56,10,9,4,20,8,35,0.42,7,Rain-Thunderstorm,147
2013-9-23,54,44,34,38,34,29,100,71,41,30.17,29.94,29.60,10,8,3,16,7,25,0.38,6,Rain,324
2013-9-24,67,48,29,31,26,9,85,48,10,30.22,30.04,29.83,10,10,10,14,5,18,0.00,0,,221
2013-9-25,70,54,37,31,25,18,64,40,15,29.81,29.57,29.39,10,10,10,32,10,44,0.00,0,,169
2013-9-26,71,55,39,31,23,15,65,39,12,29.89,29.52,29.43,10,10,10,26,11,36,0.00,1,,177
2013-9-27,51,41,30,40,33,29,92,71,50,30.20,29.91,29.46,10,8,0,20,5,25,0.12,7,Fog-Rain-Snow,3
2013-9-28,55,40,24,33,25,18,100,63,26,30.30,30.20,30.10,10,10,10,10,5,14,0.00,1,,247
2013-9-29,64,46,27,28,24,14,92,53,14,30.24,30.09,29.95,10,10,10,15,5,23,0.00,1,,211
2013-9-30,70,52,34,33,27,25,70,45,19,30.01,29.92,29.78,10,10,10,15,6,21,0.00,0,,238